sensor_id;sensor_type;location;lat;lon;timestamp;pressure;altitude;pressure_sealevel;temperature;humidity
57000;BME280;42891;50.006;21.964;2023-06-14T00:03:38;51010.72;;;-146.02;82.63
57000;BME280;42891;50.006;21.964;2023-06-14T00:07:40;51068.81;;;-146.02;83.36
57000;BME280;42891;50.006;21.964;2023-06-14T00:11:44;51058.78;;;-146.02;83.54
57000;BME280;42891;50.006;21.964;2023-06-14T00:15:45;51084.84;;;-146.02;83.43
57000;BME280;42891;50.006;21.964;2023-06-14T00:19:46;51058.78;;;-146.02;83.36
57000;BME280;42891;50.006;21.964;2023-06-14T00:23:47;51050.78;;;-146.02;83.43
57000;BME280;42891;50.006;21.964;2023-06-14T00:27:47;51020.72;;;-146.02;83.35
57000;BME280;42891;50.006;21.964;2023-06-14T00:31:47;51052.78;;;-146.02;83.46
57000;BME280;42891;50.006;21.964;2023-06-14T00:35:48;51046.78;;;-146.02;83.72
57000;BME280;42891;50.006;21.964;2023-06-14T00:39:48;51048.78;;;-146.02;83.50
57000;BME280;42891;50.006;21.964;2023-06-14T00:43:48;51048.78;;;-146.02;83.61
57000;BME280;42891;50.006;21.964;2023-06-14T00:47:49;51052.78;;;-146.02;83.63
57000;BME280;42891;50.006;21.964;2023-06-14T00:51:52;51068.81;;;-146.02;83.50
57000;BME280;42891;50.006;21.964;2023-06-14T00:55:53;51064.81;;;-146.02;83.34
57000;BME280;42891;50.006;21.964;2023-06-14T00:59:53;51076.81;;;-146.02;83.65
57000;BME280;42891;50.006;21.964;2023-06-14T01:03:55;51062.81;;;-146.02;83.75
57000;BME280;42891;50.006;21.964;2023-06-14T01:12:17;51052.78;;;-146.02;83.43
57000;BME280;42891;50.006;21.964;2023-06-14T01:16:21;51068.81;;;-146.02;83.33
57000;BME280;42891;50.006;21.964;2023-06-14T01:20:22;51064.81;;;-146.02;83.12
57000;BME280;42891;50.006;21.964;2023-06-14T01:24:23;51074.81;;;-146.02;83.12
57000;BME280;42891;50.006;21.964;2023-06-14T01:28:33;51078.84;;;-146.02;82.73
57000;BME280;42891;50.006;21.964;2023-06-14T01:32:33;51034.75;;;-146.02;83.37
57000;BME280;42891;50.006;21.964;2023-06-14T01:36:36;51060.78;;;-146.02;83.06
57000;BME280;42891;50.006;21.964;2023-06-14T01:40:38;51062.81;;;-146.02;83.36
57000;BME280;42891;50.006;21.964;2023-06-14T01:44:40;51036.75;;;-146.02;83.53
57000;BME280;42891;50.006;21.964;2023-06-14T01:48:42;51036.75;;;-146.02;83.23
57000;BME280;42891;50.006;21.964;2023-06-14T01:52:44;51062.81;;;-146.02;83.21
57000;BME280;42891;50.006;21.964;2023-06-14T01:56:44;51056.78;;;-146.02;83.52
57000;BME280;42891;50.006;21.964;2023-06-14T02:00:45;51120.91;;;-146.02;83.75
57000;BME280;42891;50.006;21.964;2023-06-14T02:04:47;51076.81;;;-146.02;83.70
57000;BME280;42891;50.006;21.964;2023-06-14T02:08:47;51046.78;;;-146.02;83.43
57000;BME280;42891;50.006;21.964;2023-06-14T02:12:48;51070.81;;;-146.02;83.42
57000;BME280;42891;50.006;21.964;2023-06-14T02:16:48;51050.78;;;-146.02;83.83
57000;BME280;42891;50.006;21.964;2023-06-14T02:20:49;51068.81;;;-146.02;83.84
57000;BME280;42891;50.006;21.964;2023-06-14T02:24:49;51056.78;;;-146.02;83.84
57000;BME280;42891;50.006;21.964;2023-06-14T02:28:50;51052.78;;;-146.02;83.76
57000;BME280;42891;50.006;21.964;2023-06-14T02:32:50;51048.78;;;-146.02;83.61
57000;BME280;42891;50.006;21.964;2023-06-14T02:36:51;51046.78;;;-146.02;83.59
57000;BME280;42891;50.006;21.964;2023-06-14T02:40:52;51098.88;;;-146.02;83.65
57000;BME280;42891;50.006;21.964;2023-06-14T02:44:53;51110.91;;;-146.02;83.79
57000;BME280;42891;50.006;21.964;2023-06-14T02:48:53;51072.81;;;-146.02;83.78
57000;BME280;42891;50.006;21.964;2023-06-14T02:52:53;51078.84;;;-146.02;83.99
57000;BME280;42891;50.006;21.964;2023-06-14T02:56:55;51046.78;;;-146.02;83.84
57000;BME280;42891;50.006;21.964;2023-06-14T03:00:56;51058.78;;;-146.02;83.67
57000;BME280;42891;50.006;21.964;2023-06-14T03:04:56;51070.81;;;-146.02;84.03
57000;BME280;42891;50.006;21.964;2023-06-14T03:09:02;51078.84;;;-146.02;83.75
57000;BME280;42891;50.006;21.964;2023-06-14T03:13:04;51066.81;;;-146.02;83.66
57000;BME280;42891;50.006;21.964;2023-06-14T03:17:05;51056.78;;;-146.02;83.74
57000;BME280;42891;50.006;21.964;2023-06-14T03:21:05;51080.84;;;-146.02;83.90
57000;BME280;42891;50.006;21.964;2023-06-14T03:25:09;51070.81;;;-146.02;83.86
57000;BME280;42891;50.006;21.964;2023-06-14T03:29:09;51076.81;;;-146.02;83.73
57000;BME280;42891;50.006;21.964;2023-06-14T03:33:09;51080.84;;;-146.02;83.69
57000;BME280;42891;50.006;21.964;2023-06-14T03:37:10;51046.78;;;-146.02;83.74
57000;BME280;42891;50.006;21.964;2023-06-14T03:41:11;51104.88;;;-146.02;83.44
57000;BME280;42891;50.006;21.964;2023-06-14T03:45:11;51068.81;;;-146.02;83.81
57000;BME280;42891;50.006;21.964;2023-06-14T03:49:12;51124.91;;;-146.02;84.24
57000;BME280;42891;50.006;21.964;2023-06-14T03:53:12;51064.81;;;-146.02;84.33
57000;BME280;42891;50.006;21.964;2023-06-14T03:57:13;51066.81;;;-146.02;84.13
57000;BME280;42891;50.006;21.964;2023-06-14T04:01:13;51090.84;;;-146.02;83.98
57000;BME280;42891;50.006;21.964;2023-06-14T04:05:14;51088.84;;;-146.02;83.92
57000;BME280;42891;50.006;21.964;2023-06-14T04:09:16;51050.78;;;-146.02;83.83
57000;BME280;42891;50.006;21.964;2023-06-14T04:13:19;51078.84;;;-146.02;83.82
57000;BME280;42891;50.006;21.964;2023-06-14T04:17:19;51086.84;;;-146.02;83.98
57000;BME280;42891;50.006;21.964;2023-06-14T04:21:19;51080.84;;;-146.02;83.53
57000;BME280;42891;50.006;21.964;2023-06-14T04:25:20;51098.88;;;-146.02;83.89
57000;BME280;42891;50.006;21.964;2023-06-14T04:29:21;51088.84;;;-146.02;83.69
57000;BME280;42891;50.006;21.964;2023-06-14T04:33:21;51088.84;;;-146.02;83.88
57000;BME280;42891;50.006;21.964;2023-06-14T04:37:22;51112.91;;;-146.02;83.74
57000;BME280;42891;50.006;21.964;2023-06-14T04:41:23;51086.84;;;-146.02;83.51
57000;BME280;42891;50.006;21.964;2023-06-14T04:45:30;51090.84;;;-146.02;83.66
57000;BME280;42891;50.006;21.964;2023-06-14T04:49:31;51038.75;;;-146.02;83.96
57000;BME280;42891;50.006;21.964;2023-06-14T04:53:32;51070.81;;;-146.02;83.81
57000;BME280;42891;50.006;21.964;2023-06-14T04:57:32;51098.88;;;-146.02;83.93
57000;BME280;42891;50.006;21.964;2023-06-14T05:01:34;51078.84;;;-146.02;84.24
57000;BME280;42891;50.006;21.964;2023-06-14T05:05:34;51078.84;;;-146.02;83.69
57000;BME280;42891;50.006;21.964;2023-06-14T05:09:35;51072.81;;;-146.02;83.87
57000;BME280;42891;50.006;21.964;2023-06-14T05:13:36;51106.88;;;-146.02;83.49
57000;BME280;42891;50.006;21.964;2023-06-14T05:17:36;51062.81;;;-146.02;83.77
57000;BME280;42891;50.006;21.964;2023-06-14T05:21:37;51104.88;;;-146.02;84.07
57000;BME280;42891;50.006;21.964;2023-06-14T05:25:38;51086.84;;;-146.02;83.58
57000;BME280;42891;50.006;21.964;2023-06-14T05:29:38;51042.75;;;-146.02;83.31
57000;BME280;42891;50.006;21.964;2023-06-14T05:33:38;51070.81;;;-146.02;83.69
57000;BME280;42891;50.006;21.964;2023-06-14T05:37:39;51092.84;;;-146.02;83.37
57000;BME280;42891;50.006;21.964;2023-06-14T05:41:39;51090.84;;;-146.02;84.01
57000;BME280;42891;50.006;21.964;2023-06-14T05:45:40;51082.84;;;-146.02;84.28
57000;BME280;42891;50.006;21.964;2023-06-14T05:49:40;51088.84;;;-146.02;84.82
57000;BME280;42891;50.006;21.964;2023-06-14T05:53:40;51064.81;;;-146.02;84.23
57000;BME280;42891;50.006;21.964;2023-06-14T05:57:41;51070.81;;;-146.02;84.03
57000;BME280;42891;50.006;21.964;2023-06-14T06:01:41;51064.81;;;-146.02;84.03
57000;BME280;42891;50.006;21.964;2023-06-14T06:05:42;51110.91;;;-146.02;83.68
57000;BME280;42891;50.006;21.964;2023-06-14T06:09:42;51064.81;;;-146.02;83.45
57000;BME280;42891;50.006;21.964;2023-06-14T06:13:43;51070.81;;;-146.02;83.48
57000;BME280;42891;50.006;21.964;2023-06-14T06:17:44;51080.84;;;-146.02;83.85
57000;BME280;42891;50.006;21.964;2023-06-14T06:21:44;51082.84;;;-146.02;83.47
57000;BME280;42891;50.006;21.964;2023-06-14T06:25:44;51070.81;;;-146.02;83.33
57000;BME280;42891;50.006;21.964;2023-06-14T06:29:45;51044.78;;;-146.02;83.66
57000;BME280;42891;50.006;21.964;2023-06-14T06:33:45;51086.84;;;-146.02;83.01
57000;BME280;42891;50.006;21.964;2023-06-14T06:37:46;51076.81;;;-146.02;83.12
57000;BME280;42891;50.006;21.964;2023-06-14T06:41:46;51084.84;;;-146.02;83.44
57000;BME280;42891;50.006;21.964;2023-06-14T06:45:46;51032.75;;;-146.02;83.79
57000;BME280;42891;50.006;21.964;2023-06-14T06:49:47;51086.84;;;-146.02;82.90
57000;BME280;42891;50.006;21.964;2023-06-14T06:53:52;51066.81;;;-146.02;83.32
57000;BME280;42891;50.006;21.964;2023-06-14T06:57:53;51058.78;;;-146.02;83.64
57000;BME280;42891;50.006;21.964;2023-06-14T07:01:53;51080.84;;;-146.02;83.14
57000;BME280;42891;50.006;21.964;2023-06-14T07:05:54;51064.81;;;-146.02;83.40
57000;BME280;42891;50.006;21.964;2023-06-14T07:09:54;51070.81;;;-146.02;82.81
57000;BME280;42891;50.006;21.964;2023-06-14T07:13:57;51060.78;;;-146.02;82.79
57000;BME280;42891;50.006;21.964;2023-06-14T07:17:57;51072.81;;;-146.02;82.73
57000;BME280;42891;50.006;21.964;2023-06-14T07:21:59;51070.81;;;-146.02;82.58
57000;BME280;42891;50.006;21.964;2023-06-14T07:26:00;51088.84;;;-146.02;81.79
57000;BME280;42891;50.006;21.964;2023-06-14T07:30:00;51104.88;;;-146.02;81.01
57000;BME280;42891;50.006;21.964;2023-06-14T07:34:01;51090.84;;;-146.02;80.75
57000;BME280;42891;50.006;21.964;2023-06-14T07:38:01;51056.78;;;-146.02;80.66
57000;BME280;42891;50.006;21.964;2023-06-14T07:42:01;51078.84;;;-146.02;81.72
57000;BME280;42891;50.006;21.964;2023-06-14T07:46:02;51098.88;;;-146.02;81.57
57000;BME280;42891;50.006;21.964;2023-06-14T07:50:02;51060.78;;;-146.02;82.18
57000;BME280;42891;50.006;21.964;2023-06-14T07:54:03;51052.78;;;-146.02;82.27
57000;BME280;42891;50.006;21.964;2023-06-14T07:58:08;51126.94;;;-146.02;82.68
57000;BME280;42891;50.006;21.964;2023-06-14T08:02:08;51096.88;;;-146.02;83.90
57000;BME280;42891;50.006;21.964;2023-06-14T08:06:09;51030.75;;;-146.02;83.50
57000;BME280;42891;50.006;21.964;2023-06-14T08:10:09;51054.78;;;-146.02;83.67
57000;BME280;42891;50.006;21.964;2023-06-14T08:14:10;51062.81;;;-146.02;84.01
57000;BME280;42891;50.006;21.964;2023-06-14T08:18:11;51080.84;;;-146.02;83.61
57000;BME280;42891;50.006;21.964;2023-06-14T08:22:11;51096.88;;;-146.02;84.06
57000;BME280;42891;50.006;21.964;2023-06-14T08:26:12;51074.81;;;-146.02;83.47
57000;BME280;42891;50.006;21.964;2023-06-14T08:30:13;51074.81;;;-146.02;84.13
57000;BME280;42891;50.006;21.964;2023-06-14T08:34:13;51064.81;;;-146.02;83.98
57000;BME280;42891;50.006;21.964;2023-06-14T08:38:14;51064.81;;;-146.02;83.65
57000;BME280;42891;50.006;21.964;2023-06-14T08:42:15;51072.81;;;-146.02;84.16
57000;BME280;42891;50.006;21.964;2023-06-14T08:46:18;51096.88;;;-146.02;83.90
57000;BME280;42891;50.006;21.964;2023-06-14T08:50:20;51058.78;;;-146.02;84.17
57000;BME280;42891;50.006;21.964;2023-06-14T08:54:22;51072.81;;;-146.02;84.29
57000;BME280;42891;50.006;21.964;2023-06-14T08:58:24;51064.81;;;-146.02;84.62
57000;BME280;42891;50.006;21.964;2023-06-14T09:02:24;51042.75;;;-146.02;84.82
57000;BME280;42891;50.006;21.964;2023-06-14T09:06:25;51088.84;;;-146.02;85.81
57000;BME280;42891;50.006;21.964;2023-06-14T09:10:28;51076.81;;;-146.02;85.43
57000;BME280;42891;50.006;21.964;2023-06-14T09:14:28;51036.75;;;-146.02;85.02
57000;BME280;42891;50.006;21.964;2023-06-14T09:18:42;51056.78;;;-146.02;87.56
57000;BME280;42891;50.006;21.964;2023-06-14T09:22:47;51054.78;;;-146.02;84.59
57000;BME280;42891;50.006;21.964;2023-06-14T09:26:47;51072.81;;;-146.02;86.86
57000;BME280;42891;50.006;21.964;2023-06-14T09:30:48;51064.81;;;-146.02;83.37
57000;BME280;42891;50.006;21.964;2023-06-14T09:34:48;51060.78;;;-146.02;83.31
57000;BME280;42891;50.006;21.964;2023-06-14T09:38:56;51032.75;;;-146.02;83.16
57000;BME280;42891;50.006;21.964;2023-06-14T09:42:57;51046.78;;;-146.02;82.99
57000;BME280;42891;50.006;21.964;2023-06-14T09:46:58;51052.78;;;-146.02;81.27
57000;BME280;42891;50.006;21.964;2023-06-14T09:50:59;51064.81;;;-146.02;82.01
57000;BME280;42891;50.006;21.964;2023-06-14T09:55:00;51088.84;;;-146.02;80.00
57000;BME280;42891;50.006;21.964;2023-06-14T09:59:06;51064.81;;;-146.02;79.19
57000;BME280;42891;50.006;21.964;2023-06-14T10:03:14;51054.78;;;-146.02;79.94
57000;BME280;42891;50.006;21.964;2023-06-14T10:07:19;51018.72;;;-146.02;79.74
57000;BME280;42891;50.006;21.964;2023-06-14T10:11:20;51052.78;;;-146.02;78.63
57000;BME280;42891;50.006;21.964;2023-06-14T10:15:32;51040.75;;;-146.02;79.50
57000;BME280;42891;50.006;21.964;2023-06-14T10:19:42;51036.75;;;-146.02;78.75
57000;BME280;42891;50.006;21.964;2023-06-14T10:23:45;51058.78;;;-146.02;79.68
57000;BME280;42891;50.006;21.964;2023-06-14T10:27:47;51032.75;;;-146.02;79.12
57000;BME280;42891;50.006;21.964;2023-06-14T10:31:50;51060.78;;;-146.02;78.35
57000;BME280;42891;50.006;21.964;2023-06-14T10:36:06;51020.72;;;-146.02;77.33
57000;BME280;42891;50.006;21.964;2023-06-14T10:40:07;51062.81;;;-146.02;76.39
57000;BME280;42891;50.006;21.964;2023-06-14T10:48:29;51024.72;;;-146.02;76.32
57000;BME280;42891;50.006;21.964;2023-06-14T10:52:33;51064.81;;;-146.02;76.48
57000;BME280;42891;50.006;21.964;2023-06-14T10:56:35;51042.75;;;-146.02;76.88
57000;BME280;42891;50.006;21.964;2023-06-14T11:00:36;51036.75;;;-146.02;77.45
57000;BME280;42891;50.006;21.964;2023-06-14T11:09:26;51020.72;;;-146.02;74.38
57000;BME280;42891;50.006;21.964;2023-06-14T11:13:38;51016.72;;;-146.02;74.92
57000;BME280;42891;50.006;21.964;2023-06-14T11:17:38;51050.78;;;-146.02;74.58
57000;BME280;42891;50.006;21.964;2023-06-14T11:21:41;51004.69;;;-146.02;72.61
57000;BME280;42891;50.006;21.964;2023-06-14T11:25:42;51058.78;;;-146.02;73.98
57000;BME280;42891;50.006;21.964;2023-06-14T11:29:48;51016.72;;;-146.02;74.27
57000;BME280;42891;50.006;21.964;2023-06-14T11:33:50;51026.72;;;-146.02;72.78
57000;BME280;42891;50.006;21.964;2023-06-14T11:37:57;51020.72;;;-146.02;68.64
57000;BME280;42891;50.006;21.964;2023-06-14T11:41:57;51010.72;;;-146.02;73.94
57000;BME280;42891;50.006;21.964;2023-06-14T11:46:01;51056.78;;;-146.02;75.42
57000;BME280;42891;50.006;21.964;2023-06-14T11:50:03;51026.72;;;-146.02;73.61
57000;BME280;42891;50.006;21.964;2023-06-14T11:54:05;51066.81;;;-146.02;73.71
57000;BME280;42891;50.006;21.964;2023-06-14T11:58:06;51054.78;;;-146.02;73.20
57000;BME280;42891;50.006;21.964;2023-06-14T12:02:07;51046.78;;;-146.02;71.29
57000;BME280;42891;50.006;21.964;2023-06-14T12:06:08;51028.75;;;-146.02;72.23
57000;BME280;42891;50.006;21.964;2023-06-14T12:10:09;51012.72;;;-146.02;74.24
57000;BME280;42891;50.006;21.964;2023-06-14T12:14:11;51002.69;;;-146.02;74.96
57000;BME280;42891;50.006;21.964;2023-06-14T12:18:12;51008.69;;;-146.02;74.36
57000;BME280;42891;50.006;21.964;2023-06-14T12:22:13;51018.72;;;-146.02;73.51
57000;BME280;42891;50.006;21.964;2023-06-14T12:26:17;51018.72;;;-146.02;72.22
57000;BME280;42891;50.006;21.964;2023-06-14T12:30:18;51042.75;;;-146.02;72.44
57000;BME280;42891;50.006;21.964;2023-06-14T12:34:18;51020.72;;;-146.02;71.86
57000;BME280;42891;50.006;21.964;2023-06-14T12:38:19;51008.69;;;-146.02;71.00
57000;BME280;42891;50.006;21.964;2023-06-14T12:42:19;51020.72;;;-146.02;71.16
57000;BME280;42891;50.006;21.964;2023-06-14T12:46:19;51004.69;;;-146.02;69.62
57000;BME280;42891;50.006;21.964;2023-06-14T12:50:21;50994.69;;;-146.02;68.69
57000;BME280;42891;50.006;21.964;2023-06-14T12:54:21;50998.69;;;-146.02;68.90
57000;BME280;42891;50.006;21.964;2023-06-14T12:58:25;51016.72;;;-146.02;63.49
57000;BME280;42891;50.006;21.964;2023-06-14T13:02:25;51002.69;;;-146.02;65.67
57000;BME280;42891;50.006;21.964;2023-06-14T13:06:26;50964.63;;;-146.02;65.60
57000;BME280;42891;50.006;21.964;2023-06-14T13:10:26;50978.66;;;-146.02;65.27
57000;BME280;42891;50.006;21.964;2023-06-14T13:14:27;50954.59;;;-146.02;64.51
57000;BME280;42891;50.006;21.964;2023-06-14T13:18:27;51006.69;;;-146.02;63.97
57000;BME280;42891;50.006;21.964;2023-06-14T13:22:28;50988.66;;;-146.02;61.32
57000;BME280;42891;50.006;21.964;2023-06-14T13:26:28;51004.69;;;-146.02;61.17
57000;BME280;42891;50.006;21.964;2023-06-14T13:30:29;50984.66;;;-146.02;64.12
57000;BME280;42891;50.006;21.964;2023-06-14T13:34:29;51000.69;;;-146.02;63.79
57000;BME280;42891;50.006;21.964;2023-06-14T13:38:29;51014.72;;;-146.02;62.53
57000;BME280;42891;50.006;21.964;2023-06-14T13:42:30;50962.63;;;-146.02;64.77
57000;BME280;42891;50.006;21.964;2023-06-14T13:46:32;51016.72;;;-146.02;64.87
57000;BME280;42891;50.006;21.964;2023-06-14T13:50:32;51038.75;;;-146.02;64.28
57000;BME280;42891;50.006;21.964;2023-06-14T13:54:33;50982.66;;;-146.02;62.76
57000;BME280;42891;50.006;21.964;2023-06-14T13:58:34;50966.63;;;-146.02;63.99
57000;BME280;42891;50.006;21.964;2023-06-14T14:02:34;50986.66;;;-146.02;60.55
57000;BME280;42891;50.006;21.964;2023-06-14T14:06:34;50968.63;;;-146.02;59.46
57000;BME280;42891;50.006;21.964;2023-06-14T14:10:35;50956.59;;;-146.02;57.21
57000;BME280;42891;50.006;21.964;2023-06-14T14:14:35;50944.59;;;-146.02;60.50
57000;BME280;42891;50.006;21.964;2023-06-14T14:18:36;51016.72;;;-146.02;60.60
57000;BME280;42891;50.006;21.964;2023-06-14T14:22:37;50998.69;;;-146.02;60.83
57000;BME280;42891;50.006;21.964;2023-06-14T14:26:38;50988.66;;;-146.02;60.49
57000;BME280;42891;50.006;21.964;2023-06-14T14:30:38;50944.59;;;-146.02;58.87
57000;BME280;42891;50.006;21.964;2023-06-14T14:34:40;50962.63;;;-146.02;61.03
57000;BME280;42891;50.006;21.964;2023-06-14T14:38:40;50962.63;;;-146.02;61.49
57000;BME280;42891;50.006;21.964;2023-06-14T14:42:41;50936.56;;;-146.02;61.43
57000;BME280;42891;50.006;21.964;2023-06-14T14:46:41;50936.56;;;-146.02;60.39
57000;BME280;42891;50.006;21.964;2023-06-14T14:50:41;50934.56;;;-146.02;59.38
57000;BME280;42891;50.006;21.964;2023-06-14T14:54:42;50980.66;;;-146.02;58.25
57000;BME280;42891;50.006;21.964;2023-06-14T14:58:42;50968.63;;;-146.02;56.49
57000;BME280;42891;50.006;21.964;2023-06-14T15:02:42;50944.59;;;-146.02;59.70
57000;BME280;42891;50.006;21.964;2023-06-14T15:06:43;50998.69;;;-146.02;58.32
57000;BME280;42891;50.006;21.964;2023-06-14T15:10:44;50968.63;;;-146.02;59.93
57000;BME280;42891;50.006;21.964;2023-06-14T15:14:45;50926.53;;;-146.02;61.18
57000;BME280;42891;50.006;21.964;2023-06-14T15:18:45;50952.59;;;-146.02;60.90
57000;BME280;42891;50.006;21.964;2023-06-14T15:22:46;50984.66;;;-146.02;59.91
57000;BME280;42891;50.006;21.964;2023-06-14T15:26:46;50932.56;;;-146.02;61.18
57000;BME280;42891;50.006;21.964;2023-06-14T15:30:46;50932.56;;;-146.02;61.08
57000;BME280;42891;50.006;21.964;2023-06-14T15:34:47;50980.66;;;-146.02;60.09
57000;BME280;42891;50.006;21.964;2023-06-14T15:38:48;51000.69;;;-146.02;61.56
57000;BME280;42891;50.006;21.964;2023-06-14T15:42:48;51000.69;;;-146.02;61.74
57000;BME280;42891;50.006;21.964;2023-06-14T15:46:48;50958.59;;;-146.02;58.80
57000;BME280;42891;50.006;21.964;2023-06-14T15:50:49;50980.66;;;-146.02;57.63
57000;BME280;42891;50.006;21.964;2023-06-14T15:54:49;51000.69;;;-146.02;60.26
57000;BME280;42891;50.006;21.964;2023-06-14T15:58:50;50996.69;;;-146.02;63.18
57000;BME280;42891;50.006;21.964;2023-06-14T16:02:50;50960.59;;;-146.02;61.90
57000;BME280;42891;50.006;21.964;2023-06-14T16:06:50;50938.56;;;-146.02;62.01
57000;BME280;42891;50.006;21.964;2023-06-14T16:10:51;50960.59;;;-146.02;60.60
57000;BME280;42891;50.006;21.964;2023-06-14T16:14:51;51000.69;;;-146.02;60.76
57000;BME280;42891;50.006;21.964;2023-06-14T16:18:52;50954.59;;;-146.02;60.25
57000;BME280;42891;50.006;21.964;2023-06-14T16:22:52;50946.59;;;-146.02;60.96
57000;BME280;42891;50.006;21.964;2023-06-14T16:26:53;50976.63;;;-146.02;60.28
57000;BME280;42891;50.006;21.964;2023-06-14T16:30:54;50978.66;;;-146.02;59.68
57000;BME280;42891;50.006;21.964;2023-06-14T16:34:54;50960.59;;;-146.02;61.61
57000;BME280;42891;50.006;21.964;2023-06-14T16:38:55;50992.66;;;-146.02;60.20
57000;BME280;42891;50.006;21.964;2023-06-14T16:42:55;50968.63;;;-146.02;62.20
57000;BME280;42891;50.006;21.964;2023-06-14T16:46:55;50984.66;;;-146.02;62.13
57000;BME280;42891;50.006;21.964;2023-06-14T16:50:56;51026.72;;;-146.02;62.08
57000;BME280;42891;50.006;21.964;2023-06-14T16:54:56;51028.75;;;-146.02;62.86
57000;BME280;42891;50.006;21.964;2023-06-14T16:58:57;50988.66;;;-146.02;62.18
57000;BME280;42891;50.006;21.964;2023-06-14T17:02:58;50978.66;;;-146.02;62.24
57000;BME280;42891;50.006;21.964;2023-06-14T17:06:59;50972.63;;;-146.02;61.96
57000;BME280;42891;50.006;21.964;2023-06-14T17:11:00;51004.69;;;-146.02;61.98
57000;BME280;42891;50.006;21.964;2023-06-14T17:15:02;50970.63;;;-146.02;62.31
57000;BME280;42891;50.006;21.964;2023-06-14T17:19:03;51010.72;;;-146.02;62.93
57000;BME280;42891;50.006;21.964;2023-06-14T17:23:04;50968.63;;;-146.02;62.67
57000;BME280;42891;50.006;21.964;2023-06-14T17:27:05;50998.69;;;-146.02;62.21
57000;BME280;42891;50.006;21.964;2023-06-14T17:31:06;51026.72;;;-146.02;64.27
57000;BME280;42891;50.006;21.964;2023-06-14T17:35:06;50982.66;;;-146.02;63.00
57000;BME280;42891;50.006;21.964;2023-06-14T17:39:07;50978.66;;;-146.02;63.56
57000;BME280;42891;50.006;21.964;2023-06-14T17:43:08;51020.72;;;-146.02;64.48
57000;BME280;42891;50.006;21.964;2023-06-14T17:47:08;51014.72;;;-146.02;65.51
57000;BME280;42891;50.006;21.964;2023-06-14T17:51:09;50976.63;;;-146.02;64.19
57000;BME280;42891;50.006;21.964;2023-06-14T17:55:09;51020.72;;;-146.02;63.68
57000;BME280;42891;50.006;21.964;2023-06-14T17:59:10;51014.72;;;-146.02;63.22
57000;BME280;42891;50.006;21.964;2023-06-14T18:03:10;51026.72;;;-146.02;63.39
57000;BME280;42891;50.006;21.964;2023-06-14T18:07:11;51002.69;;;-146.02;63.44
57000;BME280;42891;50.006;21.964;2023-06-14T18:11:11;51006.69;;;-146.02;61.88
57000;BME280;42891;50.006;21.964;2023-06-14T18:15:12;51006.69;;;-146.02;60.07
57000;BME280;42891;50.006;21.964;2023-06-14T18:19:12;51016.72;;;-146.02;60.08
57000;BME280;42891;50.006;21.964;2023-06-14T18:23:17;51022.72;;;-146.02;59.30
57000;BME280;42891;50.006;21.964;2023-06-14T18:27:17;50994.69;;;-146.02;59.63
57000;BME280;42891;50.006;21.964;2023-06-14T18:31:18;51024.72;;;-146.02;60.15
57000;BME280;42891;50.006;21.964;2023-06-14T18:35:19;50994.69;;;-146.02;60.43
57000;BME280;42891;50.006;21.964;2023-06-14T18:39:19;51008.69;;;-146.02;60.12
57000;BME280;42891;50.006;21.964;2023-06-14T18:43:19;51040.75;;;-146.02;59.74
57000;BME280;42891;50.006;21.964;2023-06-14T18:47:20;51060.78;;;-146.02;60.21
57000;BME280;42891;50.006;21.964;2023-06-14T18:51:20;51012.72;;;-146.02;61.78
57000;BME280;42891;50.006;21.964;2023-06-14T18:55:20;51008.69;;;-146.02;62.50
57000;BME280;42891;50.006;21.964;2023-06-14T18:59:23;50994.69;;;-146.02;61.98
57000;BME280;42891;50.006;21.964;2023-06-14T19:03:23;51022.72;;;-146.02;62.90
57000;BME280;42891;50.006;21.964;2023-06-14T19:07:23;51018.72;;;-146.02;63.50
57000;BME280;42891;50.006;21.964;2023-06-14T19:11:24;51018.72;;;-146.02;63.64
57000;BME280;42891;50.006;21.964;2023-06-14T19:15:24;51034.75;;;-146.02;65.10
57000;BME280;42891;50.006;21.964;2023-06-14T19:19:26;51034.75;;;-146.02;65.07
57000;BME280;42891;50.006;21.964;2023-06-14T19:23:26;51046.78;;;-146.02;65.67
57000;BME280;42891;50.006;21.964;2023-06-14T19:27:26;51042.75;;;-146.02;65.57
57000;BME280;42891;50.006;21.964;2023-06-14T19:31:27;51012.72;;;-146.02;66.20
57000;BME280;42891;50.006;21.964;2023-06-14T19:35:27;51024.72;;;-146.02;66.39
57000;BME280;42891;50.006;21.964;2023-06-14T19:39:28;51032.75;;;-146.02;66.55
57000;BME280;42891;50.006;21.964;2023-06-14T19:43:28;51028.75;;;-146.02;66.14
57000;BME280;42891;50.006;21.964;2023-06-14T19:47:28;51030.75;;;-146.02;66.38
57000;BME280;42891;50.006;21.964;2023-06-14T19:51:29;51028.75;;;-146.02;66.40
57000;BME280;42891;50.006;21.964;2023-06-14T19:55:30;51042.75;;;-146.02;66.88
57000;BME280;42891;50.006;21.964;2023-06-14T19:59:30;51096.88;;;-146.02;67.00
57000;BME280;42891;50.006;21.964;2023-06-14T20:03:33;51048.78;;;-146.02;67.46
57000;BME280;42891;50.006;21.964;2023-06-14T20:07:34;51062.81;;;-146.02;67.77
57000;BME280;42891;50.006;21.964;2023-06-14T20:11:34;51070.81;;;-146.02;68.33
57000;BME280;42891;50.006;21.964;2023-06-14T20:15:34;51052.78;;;-146.02;68.29
57000;BME280;42891;50.006;21.964;2023-06-14T20:19:35;51036.75;;;-146.02;68.55
57000;BME280;42891;50.006;21.964;2023-06-14T20:23:35;51026.72;;;-146.02;68.92
57000;BME280;42891;50.006;21.964;2023-06-14T20:27:36;51048.78;;;-146.02;69.29
57000;BME280;42891;50.006;21.964;2023-06-14T20:31:36;51036.75;;;-146.02;69.24
57000;BME280;42891;50.006;21.964;2023-06-14T20:35:37;51046.78;;;-146.02;69.54
57000;BME280;42891;50.006;21.964;2023-06-14T20:39:39;51016.72;;;-146.02;69.90
57000;BME280;42891;50.006;21.964;2023-06-14T20:43:39;51036.75;;;-146.02;70.32